ADDS METAR Data INFO
IDs: Format: Raw Decoded Include TAF

Data at: 0108 UTC 21 Oct 2017

PAOM 210053Z 03016KT 10SM SCT027 BKN100 BKN180 M06/M08 A2914 RMK AO2 UPB06E12 SLP867 P0000 T10561083
PAOM 202353Z 02016G21KT 10SM FEW020 BKN100 BKN180 M05/M09 A2914 RMK AO2 SLP868 T10501089 11050 21089 58002
PAOM 202253Z 03017KT 10SM FEW010 BKN120 M06/M09 A2915 RMK AO2 SLP870 T10561089
PAOM 202153Z 04010KT 10SM FEW010 BKN035 BKN150 M06/M08 A2915 RMK AO2 SLP871 T10561083
PAOM 202053Z 01011KT 10SM FEW010 SCT035 BKN150 M06/M09 A2915 RMK AO2 SLP870 T10611089 57001
PAOM 201953Z 35009KT 10SM SCT015 SCT035 BKN050 M09/M10 A2915 RMK AO2 SLP871 T10891100
PAOM 201853Z 00000KT 10SM SCT015 SCT035 BKN050 M08/M09 A2915 RMK AO2 SLP870 T10781089
PAOM 201753Z 05006KT 10SM SCT020 BKN035 BKN050 M07/M08 A2915 RMK AO2 SLP871 60003 T10721078 11056 21089 53002
PAOM 201653Z 04006KT 10SM BKN013 M08/M08 A2914 RMK AO2 SNE16 SLP870 P0001 T10831083
PAOM 201613Z 06005KT 7SM -SN FEW004 BKN016 M07/M07 A2913 RMK AO2 P0001 T10721072
PAOM 201605Z 04007KT 2SM -SN BR FEW004 OVC018 M08/M08 A2913 RMK AO2 P0001 T10781078
PAOM 201600Z 02008KT 1SM R28/5500VP6000FT -SN BR VV019 M07/M07 A2913 RMK AO2 P0001 T10721072
PAOM 201553Z 03006KT 2SM R28/5500VP6000FT -SN BR OVC018 M07/M07 A2914 RMK AO2 SNB1458E12B41 SLP867 VIS 1V4 P0000 T10721072
PAOM 201544Z 35004KT 2SM -SN BR BKN024 BKN046 OVC100 M07/M08 A2914 RMK AO2 SNB1458E12B41 P0000 T10721078
PAOM 201453Z AUTO 10005KT 9SM OVC044 M06/M06 A2914 RMK AO2 SNE21B26E53 SLP869 P0001 60002 T10611061 57022 TSNO
PAOM 201424Z AUTO 00000KT 8SM OVC033 M08/M08 A2916 RMK AO2 SNE21 P0001 T10781078 TSNO
PAOM 201408Z AUTO 00000KT 3SM -SN BR OVC020 M08/M08 A2917 RMK AO2 P0001 T10781078 TSNO
PAOM 201353Z AUTO 32003KT 1 1/4SM R28/5500VP6000FT -SN BR OVC019 M07/M07 A2917 RMK AO2 SNB06 SLP879 P0001 T10721072 TSNO
PAOM 201346Z AUTO 1 3/4SM -SN BR OVC023 M07/M07 A2918 RMK AO2 SNB06 P0001 T10671067 TSNO
PAOM 201324Z AUTO VRB03KT 3SM -SN BR FEW012 OVC025 M07/M07 A2918 RMK AO2 SNB06 P0001 T10671067 TSNO
PAOM 201317Z AUTO 31004KT 1 1/2SM -SN BR FEW014 OVC025 M07/M07 A2918 RMK AO2 SNB06 P0001 T10721072 TSNO
PAOM 201308Z AUTO VRB03KT 2 1/2SM -SN BR FEW012 BKN020 BKN075 M07/M08 A2918 RMK AO2 SNB06 P0000 T10721078 TSNO
PAOM 201253Z AUTO 06005KT 10SM FEW036 BKN075 BKN110 M06/M06 A2918 RMK AO2 SNE25 SLP881 P0000 T10611061 TSNO
PAOM 201232Z AUTO 06003KT 10SM SCT011 BKN085 OVC110 M08/M08 A2919 RMK AO2 SNE25 P0000 T10781078 TSNO
PAOM 201217Z AUTO 05004KT 5SM -SN BR BKN019 OVC080 M07/M07 A2919 RMK AO2 P0000 T10671067 TSNO
PAOM 201205Z AUTO 00000KT 2 1/2SM -SN BR BKN029 OVC110 M06/M06 A2920 RMK AO2 P0000 T10561056 TSNO
PAOM 201153Z AUTO 00000KT 7SM -SN BKN039 BKN070 OVC120 M06/M06 A2921 RMK AO2 SNB05E38B52 SLP891 P0000 60011 70012 I6000 T10561056 11044 21089 56023 TSNO
PAOM 201140Z AUTO 25004KT 9SM SCT014 BKN070 BKN080 M06/M06 A2921 RMK AO2 SNB05E38 P0000 T10561056 TSNO
PAOM 201132Z AUTO 26004KT 3SM -SN BR BKN015 BKN070 OVC110 M05/M05 A2922 RMK AO2 SNB05 P0000 T10501050 TSNO
PAOM 201125Z AUTO 29004KT 1SM R28/4000VP6000FT -SN BR BKN015 OVC070 M05/M05 A2922 RMK AO2 VIS 3/4V2 1/2 SNB05 P0000 T10501050 TSNO
PAOM 201114Z AUTO 28004KT 2 1/2SM -SN BR BKN025 OVC070 M05/M05 A2922 RMK AO2 VIS 1 1/2V3 SNB05 P0000 T10501050 TSNO
PAOM 201053Z AUTO 27003KT 10SM FEW065 BKN080 OVC120 M06/M06 A2922 RMK AO2 SNE39 SLP897 P0004 I1000 T10561056 TSNO
PAOM 201039Z AUTO 00000KT 9SM FEW013 SCT022 OVC110 M06/M06 A2923 RMK AO2 SNE39 CIG 070 NE P0004 T10561056 TSNO
PAOM 201019Z AUTO 31004KT 4SM -SN BR SCT007 OVC021 M04/M04 A2924 RMK AO2 P0004 T10441044 TSNO
PAOM 201015Z AUTO 31004KT 2SM -SN BR BKN006 OVC022 M04/M04 A2925 RMK AO2 P0004 T10441044 TSNO
PAOM 201007Z AUTO 26004KT 3/4SM R28/3500VP6000FT -SN BR VV007 M04/M04 A2925 RMK AO2 P0003 T10441044 TSNO
PAOM 200953Z AUTO 26007KT 1/4SM R28/2600V5000FT +SN FZFG VV004 M04/M04 A2925 RMK SNB0856 SLP906 P0007 T10441044 TSNO VIA AUTODIAL
PAOM 200951Z AUTO 27007KT 1/4SM R28/2400V5000FT +SN FZFG VV004 M04/M04 A2925 RMK SNB0856 P0007 TSNO VIA AUTODIAL
PAOM 200927Z AUTO 28003KT 1/2SM R28/3500VP6000FT SN FZFG VV009 M07/M07 A2927 RMK AO2 SNB0856 P0002 T10671067 TSNO
PAOM 200921Z AUTO 00000KT 1 1/4SM -SN BR OVC014 M07/M07 A2927 RMK AO2 SNB0856 P0002 T10671067 TSNO
PAOM 200913Z AUTO 00000KT 3/4SM R28/3500VP6000FT -SN BR BKN015 OVC110 M07/M07 A2927 RMK AO2 SNB0856 P0001 T10671067 TSNO
PAOM 200904Z AUTO 00000KT 1/2SM SN FZFG BKN014 BKN110 M08/M09 A2927 RMK AO2 SNB0856 P0000 T10781089 TSNO RVRNO
PAOM 200859Z AUTO 00000KT 1 1/2SM R28/4000VP6000FT -SN BR BKN023 BKN110 M08/M09 A2927 RMK AO2 SNB56 P0000 T10781094 TSNO
PAOM 200853Z AUTO 00000KT 9SM SCT033 BKN110 M08/M09 A2928 RMK AO2 SNB27E36 SLP914 P0000 60000 T10781094 410111089 58014 TSNO
PAOM 200753Z AUTO VRB04KT 10SM CLR M07/M09 A2929 RMK AO2 SLP919 T10721089 TSNO
PAOM 200653Z 29008KT 10SM CLR M07/M09 A2931 RMK AO2 SLP925 T10721089
PAOM 200553Z 04003KT 10SM CLR M07/M09 A2932 RMK AO2 SLP928 T10671089 11011 21067 58009
PAOM 200453Z 01003KT 10SM CLR M07/M08 A2933 RMK AO2 SLP933 T10671078
PAOM 200353Z 30008KT 10SM SCT085 M04/M07 A2934 RMK AO2 SLP935 T10441072
PAOM 200253Z 29006KT 10SM SCT070 BKN085 M03/M06 A2935 RMK AO2 SLP937 T10331061 58014
PAOM 200153Z 29011KT 10SM OVC090 M02/M05 A2936 RMK AO2 SLP942 T10171050
PAOM 200053Z 30010KT 10SM FEW012 SCT050 SCT100 M02/M05 A2937 RMK AO2 SLP947 T10171050
PAOM 192353Z 29010KT 10SM FEW010 SCT080 SCT150 M01/M04 A2939 RMK AO2 SLP952 60001 T10111039 11011 21050 57019
PAOM 192253Z COR 30009KT 10SM FEW010 SCT040 BKN150 M01/M04 A2941 RMK SLP958 T10111044 VIA AUTODIAL
PAOM 192153Z 31008KT 10SM FEW007 SCT029 SCT042 M02/M03 A2942 RMK AO2 SNE2057 SLP963 P0000 T10221033
PAOM 192115Z 28009KT 10SM FEW007 SCT029 SCT042 M02/M03 A2944 RMK AO2 SNE2057 P0000 T10221028
PAOM 192053Z 29007KT 3SM -SN BR SCT018 BKN029 BKN042 M03/M03 A2944 RMK AO2 SNB16 SLP970 VIS 2V5 P0001 60001 T10281028 58016
PAOM 192029Z 28008KT 3SM R28/4000VP6000FT -SN BR BKN028 BKN036 BKN046 M03/M03 A2945 RMK AO2 SNB16 VSY 2V5 P0000 T10281028
PAOM 192021Z 28006KT 1 1/2SM R28/4000VP6000FT -SN BR BKN027 M03/M03 A2945 RMK AO2 SNB16 P0000 T10281033
PAOM 191953Z 00000KT 10SM FEW028 BKN036 BKN044 M03/M03 A2946 RMK AO2 SNE14B46E52 SLP976 P0000 T10331033
PAOM 191901Z 00000KT 9SM -SN BKN028 BKN040 OVC110 M04/M04 A2947 RMK AO2 P0000 T10391044
PAOM 191859Z 00000KT 2 1/2SM -SN BR BKN028 BKN040 OVC110 M04/M04 A2947 RMK AO2 P0000 T10391044
PAOM 191853Z 24003KT 9SM -SN FEW028 BKN036 BKN110 M04/M04 A2948 RMK SNB48 SLP982 P0000 T10391044 VIA AUTODIAL
PAOM 191753Z 32007KT 10SM SCT085 M04/M05 A2949 RMK AO2 SLP987 T10441050 11039 21067 58018
PAOM 191653Z 00000KT 10SM FEW085 M06/M06 A2951 RMK AO2 SLP992 T10611061
PAOM 191553Z 31005KT 10SM SCT070 M05/M06 A2953 RMK AO2 SLP001 T10501056
PAOM 191453Z AUTO 29008KT 10SM CLR M04/M06 A2954 RMK AO2 SLP005 T10441056 58017 TSNO
PAOM 191353Z AUTO 30006KT 10SM CLR M05/M06 A2956 RMK AO2 SLP012 T10501061 TSNO